Hovedside
METAR-TAF:

METAR-TAF

Lufthavner :

Joensuu lufthavn

Joensuu, Finland

breddegrad: 62-40N, lengdegrad: 029-38E, høyde over havet: 119 m

Gjeldene værobservasjon

Denne rapporten ble laget for 16 minutter siden, klokken 04:50 UTC
Vind 2 kt fra Nord-nordøst
Temperatur 9°C
Luftfuktighet 57%
Trykk 1025 hPa
Sikt 10 km eller mer
ingen skyer under 1500 m og ingen bygeskyer

METAR: EFJO 250450Z 02002KT CAVOK 09/01 Q1025

Tid: 08:06 (05:06 UTC)

Varsel

Denne rapporten ble laget for 2 timer og 40 minutter siden, klokken 02:26 UTC
Varsel gyldig fra 25. klokken 03 UTC til 25. klokken 12 UTC
Vind 3 kt fra Vest-nordvest
Sikt 10 km eller mer
ingen skyer under 1500 m og ingen bygeskyer

TAF: EFJO 250226Z 2503/2512 30003KT CAVOK

Værobservasjoner og værvarsel for over 4000 flyplasser (METAR- og TAF-rapporter).

Tilgjengelige stasjoner er representert av de røde og gule prikkene på kartet.

Hold musepekeren over prikken for å se navnet på stasjonen.

Klikk så for å se værobservasjoner og -varsler.

For å forandre kartet kan du klikke på den grønne knappen med svart kryss for å zoome inn, på den grønne knappen med strek for å zoome ut, eller på de grønne pilene for å se tilstøtende kart.


METAR-TAF: